createdAt,value
2023-03-29T00:01:52.580Z,5.09
2023-03-29T00:12:30.469Z,4.88
2023-03-29T00:17:49.684Z,4.82
2023-03-29T00:28:28.329Z,4.78
2023-03-29T00:33:47.273Z,4.69
2023-03-29T00:39:06.475Z,4.67
2023-03-29T00:44:25.763Z,4.67
2023-03-29T00:55:04.128Z,4.79
2023-03-29T01:00:23.800Z,4.79
2023-03-29T01:11:03.267Z,4.8
2023-03-29T01:16:22.628Z,4.79
2023-03-29T01:21:41.391Z,4.67
2023-03-29T01:27:01.026Z,4.55
2023-03-29T01:37:39.615Z,4.51
2023-03-29T01:42:58.425Z,4.55
2023-03-29T01:53:37.122Z,4.58
2023-03-29T01:58:56.392Z,4.67
2023-03-29T02:04:15.338Z,4.82
2023-03-29T02:09:34.319Z,4.83
2023-03-29T02:20:13.228Z,4.78
2023-03-29T02:25:32.866Z,4.78
2023-03-29T02:36:12.291Z,4.86
2023-03-29T02:41:31.314Z,4.85
2023-03-29T02:46:50.557Z,4.83
2023-03-29T02:52:09.744Z,4.82
2023-03-29T02:57:29.544Z,4.86
2023-03-29T03:02:48.940Z,4.92
2023-03-29T03:08:08.373Z,4.96
2023-03-29T03:18:46.195Z,5.06
2023-03-29T03:24:05.636Z,5.06
2023-03-29T03:34:44.415Z,4.94
2023-03-29T03:40:03.383Z,4.98
2023-03-29T03:45:22.355Z,4.96
2023-03-29T03:50:41.800Z,4.96
2023-03-29T04:01:20.279Z,4.98
2023-03-29T04:11:58.506Z,5.15
2023-03-29T04:17:17.521Z,5.22
2023-03-29T04:22:36.581Z,5.22
2023-03-29T04:27:55.907Z,5.23
2023-03-29T04:38:33.985Z,4.83
2023-03-29T04:43:53.072Z,4.71
2023-03-29T04:54:31.921Z,4.61
2023-03-29T04:59:51.419Z,4.69
2023-03-29T05:05:11.000Z,4.55
2023-03-29T05:10:30.374Z,4.79
2023-03-29T05:21:08.237Z,5.1
2023-03-29T05:26:27.310Z,5.12
2023-03-29T05:37:06.582Z,5.36
2023-03-29T05:42:25.706Z,5.5
2023-03-29T05:47:44.799Z,5.6
2023-03-29T05:53:03.723Z,5.69
2023-03-29T06:03:42.855Z,5.99
2023-03-29T06:09:01.755Z,6.25
2023-03-29T06:19:40.159Z,6.51
2023-03-29T06:25:08.421Z,6.66
2023-03-29T06:30:19.304Z,6.71
2023-03-29T06:35:38.752Z,6.84
2023-03-29T06:40:57.756Z,6.99
2023-03-29T06:46:16.812Z,7.19
2023-03-29T06:51:36.043Z,7.56
2023-03-29T07:02:14.830Z,8.38
2023-03-29T07:07:33.728Z,8.49
2023-03-29T07:12:52.529Z,8.84
2023-03-29T07:18:11.558Z,9.13
2023-03-29T07:23:31.061Z,9.22
2023-03-29T07:28:49.877Z,9.16
2023-03-29T07:34:09.132Z,9.17
2023-03-29T07:44:47.850Z,9.26
2023-03-29T07:50:06.816Z,9.42
2023-03-29T08:00:45.172Z,9.51
2023-03-29T08:06:04.636Z,9.67
2023-03-29T08:11:23.989Z,9.68
2023-03-29T08:16:42.919Z,9.57
2023-03-29T08:27:21.883Z,10.14
2023-03-29T08:32:41.429Z,10.22
2023-03-29T08:43:20.153Z,10.03
2023-03-29T08:48:39.128Z,10.34
2023-03-29T08:53:58.720Z,10.44
2023-03-29T08:59:17.870Z,10.36
2023-03-29T09:09:55.834Z,10.4
2023-03-29T09:15:14.715Z,10.6
2023-03-29T09:25:54.333Z,11.09
2023-03-29T09:31:12.777Z,11.09
2023-03-29T09:36:31.834Z,10.9
2023-03-29T09:41:51.127Z,10.71
2023-03-29T09:47:10.476Z,10.71
2023-03-29T09:52:29.987Z,10.8
2023-03-29T09:57:49.559Z,10.88
2023-03-29T10:08:28.801Z,10.99
2023-03-29T10:13:48.332Z,11.02
2023-03-29T10:24:27.246Z,11.04
2023-03-29T10:29:46.191Z,10.99
2023-03-29T10:35:05.480Z,10.98
2023-03-29T10:40:24.630Z,11.07
2023-03-29T10:46:58.793Z,11.16
2023-03-29T10:51:15.352Z,11.33
2023-03-29T11:01:43.109Z,11.59
2023-03-29T11:07:02.233Z,11.7
2023-03-29T11:17:41.089Z,11.97
2023-03-29T11:22:59.948Z,12.78
2023-03-29T11:28:19.274Z,12.79
2023-03-29T11:33:38.848Z,12.48
2023-03-29T11:44:16.581Z,12.25
2023-03-29T11:49:35.698Z,12.68
2023-03-29T12:00:13.986Z,13.17
2023-03-29T12:05:33.426Z,12.79
2023-03-29T12:10:51.399Z,12.48
2023-03-29T12:16:10.133Z,12.38
2023-03-29T12:26:48.597Z,12.69
2023-03-29T12:32:07.946Z,13
2023-03-29T12:42:46.976Z,13.36
2023-03-29T12:48:05.987Z,13.48
2023-03-29T12:53:25.571Z,13.94
2023-03-29T12:58:45.079Z,14.43
2023-03-29T13:09:23.206Z,14.32
2023-03-29T13:14:42.076Z,14.4
2023-03-29T13:25:19.919Z,14.32
2023-03-29T13:30:39.157Z,14.7
2023-03-29T13:35:57.931Z,15.4
2023-03-29T13:41:16.948Z,15.99
2023-03-29T13:46:35.921Z,15.9
2023-03-29T13:51:54.534Z,15.87
2023-03-29T13:57:13.647Z,15.45
2023-03-29T14:07:52.016Z,15.01
2023-03-29T14:13:11.298Z,14.92
2023-03-29T14:23:49.568Z,14.99
2023-03-29T14:29:34.816Z,14.99
2023-03-29T14:40:13.077Z,15.17
2023-03-29T14:45:31.906Z,15.8
2023-03-29T14:56:10.201Z,15.69
2023-03-29T15:01:29.813Z,15.5
2023-03-29T15:06:48.786Z,15.58
2023-03-29T15:12:07.549Z,15.8
2023-03-29T15:22:45.565Z,15.74
2023-03-29T15:28:04.640Z,15.56
2023-03-29T15:38:44.905Z,15.32
2023-03-29T15:44:03.016Z,15.29
2023-03-29T15:49:22.687Z,15.22
2023-03-29T15:54:42.174Z,15.05
2023-03-29T16:00:01.261Z,14.98
2023-03-29T16:05:20.726Z,14.91
2023-03-29T16:10:39.886Z,14.78
2023-03-29T16:21:17.563Z,14.71
2023-03-29T16:26:37.146Z,14.76
2023-03-29T16:37:15.891Z,14.77
2023-03-29T16:42:35.566Z,14.67
2023-03-29T16:47:55.000Z,14.56
2023-03-29T16:53:14.326Z,14.44
2023-03-29T17:03:52.425Z,14.28
2023-03-29T17:09:12.100Z,14.2
2023-03-29T17:19:49.818Z,14.09
2023-03-29T17:25:09.052Z,14.06
2023-03-29T17:30:28.459Z,13.99
2023-03-29T17:41:06.703Z,13.89
2023-03-29T17:46:26.114Z,13.82
2023-03-29T17:57:04.435Z,13.65
2023-03-29T18:02:23.503Z,13.67
2023-03-29T18:07:42.293Z,13.64
2023-03-29T18:13:01.158Z,13.64
2023-03-29T18:23:39.850Z,13.53
2023-03-29T18:28:58.715Z,13.44
2023-03-29T18:39:37.415Z,13.17
2023-03-29T18:44:56.654Z,12.86
2023-03-29T18:55:35.141Z,12.51
2023-03-29T19:00:54.362Z,12.41
2023-03-29T19:06:13.558Z,12.56
2023-03-29T19:11:33.166Z,12.56
2023-03-29T19:22:11.608Z,12.58
2023-03-29T19:27:30.386Z,12.68
2023-03-29T19:38:08.611Z,12.78
2023-03-29T19:43:27.463Z,12.7
2023-03-29T19:48:46.412Z,12.6
2023-03-29T19:54:05.183Z,12.6
2023-03-29T19:59:24.835Z,12.53
2023-03-29T20:04:43.975Z,12.41
2023-03-29T20:10:02.753Z,12.31
2023-03-29T20:20:42.093Z,12.29
2023-03-29T20:26:01.170Z,12.25
2023-03-29T20:31:20.264Z,12.27
2023-03-29T20:36:39.927Z,12.34
2023-03-29T20:41:59.145Z,12.32
2023-03-29T20:47:18.649Z,12.37
2023-03-29T20:52:37.577Z,12.32
2023-03-29T21:03:16.774Z,12.22
2023-03-29T21:08:36.245Z,12.14
2023-03-29T21:19:15.028Z,12.51
2023-03-29T21:24:34.321Z,12.62
2023-03-29T21:29:53.774Z,12.65
2023-03-29T21:35:12.697Z,12.66
2023-03-29T21:45:51.469Z,12.21
2023-03-29T21:51:10.336Z,12.29
2023-03-29T22:01:48.027Z,12.63
2023-03-29T22:07:07.621Z,12.76
2023-03-29T22:12:26.520Z,12.93
2023-03-29T22:17:45.105Z,13.09
2023-03-29T22:28:23.935Z,13.2
2023-03-29T22:33:43.218Z,13.33
2023-03-29T22:44:21.262Z,13.19
2023-03-29T22:49:40.679Z,13.17
2023-03-29T22:55:00.078Z,13.23
2023-03-29T23:00:19.814Z,13.21
2023-03-29T23:05:39.211Z,13.06
2023-03-29T23:10:58.715Z,12.99
2023-03-29T23:16:18.448Z,12.92
2023-03-29T23:26:56.641Z,12.68
2023-03-29T23:32:15.744Z,12.75
2023-03-29T23:42:53.624Z,13.1
2023-03-29T23:48:12.853Z,13.3
2023-03-29T23:53:32.347Z,13.37
2023-03-29T23:58:54.653Z,13.34
